Bluefield, WV

13:41 EST le 23 novembre 2014 (GMT -0500)
New River Valley | Change Station
CLOSE
Current Station
Aéroport
Location: Dublin,
Altitude: 2106 ft
Stations météo à proximité
Avis météorologiques actifs: Wind Advisory

Alt. 2106 ft 37.14 °N, 80.68 °W | Updated 26 minutes ago

Couvert
Couvert
52 ° F
Paraît 52 ° F
N
6
Vent Variable Vent de Sud

Aujourd'hui
Haut(e) -- | Bas -- ° F
--% Risque de précip.
Hier
Haut(e) -- | Bas -- ° F
Precip. -- pouce
7:12 AM 5:09 PM
Nouvelle lune, 2% visible
Pression 30.08 pouce
Visibilité 10.0 Miles terrestres
Nuages Couvert 1900 ft
Point de rosée 45 ° F
Humidité 76%
Précipitations 0.00 pouce
Profondeur de la couche neigeuse Non disponible.
UV 1 sur 12
Pollen .10 sur 12
Qualité de l'air Non disponible.
Flu Activity Non disponible.
METAR KPSK 231815Z AUTO 19005KT 10SM -RA OVC019 11/07 A3008 RMK AO2

More Conditions Fewer Conditions

Pression 30.08 pouce
Visibilité 10.0 Miles terrestres
Nuages Couvert 1900 ft
Point de rosée 45 ° F
Humidité 76%
Précipitations 0.00 pouce
Profondeur de la couche neigeuse Non disponible.
UV 1 sur 12
Pollen .10 sur 12
Qualité de l'air Non disponible.
Flu Activity Non disponible.
METAR KPSK 231815Z AUTO 19005KT 10SM -RA OVC019 11/07 A3008 RMK AO2

More Conditions Fewer Conditions

10-Day Weather Forecast

Almanac

Astronomie

Nov. 23, 2014 Lever Coucher
Temps réel
Crépuscule civil
Crépuscule nautique
Crépuscule astronomique
Lune
Durée de lumière visible
Longueur du jour
Tomorrow will be .
, % of the Moon is Illuminated

Extrêmes aujourd'hui

State Highs State Lows

Community

WunderPhotos

Upload Photos

1,773,127 Photos téléchargées !

WunderBlogs® & News

Nearby

Qualité de l'air

  Qualité de l'air Indice de la qualité de l'air Polluant
Not available.

Épaisseur de neige

Station Depth Altitude

Activité sismique

Ville Distance Mag. Time & Date
Minimum magnitude displayed is 2.5.

Températures des eaux côtières

Lieu Température

Stations météo à proximité